Terminal Aerodrome Forecast
Issued by NWS Nashville, TN

Home | Current Version | Previous Version | Text Only | Print | Product List | Glossary On
Versions: 1 2 3 4 5 6 7 8 9 10 11 12 13 14 15 16 17 18
407
FTUS44 KOHX 292346
TAFCSV
TAF
KCSV 292346Z 3000/3024 32006KT P6SM FEW050
     FM300800 01002KT 2SM BR SCT120
     FM301300 01007KT P6SM FEW050 SCT120=

USA.gov is the U.S. government's official web portal to all federal, state and local government web resources and services.